CST,Max TemperatureF,Mean TemperatureF,Min TemperatureF,Max Dew PointF,MeanDew PointF,Min DewpointF,Max Humidity, Mean Humidity, Min Humidity, Max Sea Level PressureIn, Mean Sea Level PressureIn, Min Sea Level PressureIn, Max VisibilityMiles, Mean VisibilityMiles, Min VisibilityMiles, Max Wind SpeedMPH, Mean Wind SpeedMPH, Max Gust SpeedMPH,PrecipitationIn, CloudCover, Events, WindDirDegrees
2013-11-1,72,60,48,52,47,39,93,62,31,29.91,29.81,29.77,10,10,10,16,6,23,0.01,1,Rain,272
2013-11-2,61,53,44,44,41,37,89,66,42,30.22,30.08,29.92,10,10,10,18,7,25,0.01,2,,310
2013-11-3,60,47,34,42,38,34,100,70,40,30.32,30.24,30.17,10,10,10,13,3,23,0.00,0,,98
2013-11-4,58,49,40,49,45,40,96,79,62,30.26,30.22,30.18,10,10,10,16,5,22,T,2,Rain,134
2013-11-5,66,59,52,54,50,47,89,75,60,30.28,30.19,30.11,10,10,10,17,8,22,0.00,5,,125
2013-11-6,60,53,45,58,51,37,93,82,71,30.31,30.11,30.03,10,9,2,21,10,26,0.36,8,Rain,222
2013-11-7,58,47,36,38,36,34,85,64,43,30.44,30.36,30.32,10,8,1,13,4,22,0.00,0,,313
2013-11-8,60,48,36,41,37,33,100,68,36,30.39,30.30,30.20,10,10,10,10,4,16,0.00,0,,146
2013-11-9,64,51,37,48,44,36,93,74,55,30.26,30.22,30.18,10,10,10,16,5,20,T,5,,213
2013-11-10,65,53,40,47,40,35,100,69,37,30.39,30.32,30.26,10,10,10,18,6,24,0.00,1,,42
2013-11-11,69,53,37,49,41,33,85,61,37,30.31,30.24,30.17,10,10,9,10,3,14,0.00,5,,260
2013-11-12,60,45,29,48,27,16,86,60,34,30.71,30.58,30.29,10,10,7,24,12,35,T,4,Rain,22
2013-11-13,45,35,24,26,22,19,92,65,37,30.74,30.61,30.44,10,10,10,9,3,12,0.00,0,,73
2013-11-14,57,40,22,30,25,20,100,64,27,30.43,30.29,30.15,10,10,8,21,5,44,0.00,0,,185
2013-11-15,56,46,36,52,43,27,89,73,57,30.15,30.07,30.01,10,10,10,13,4,18,T,7,Rain,170
2013-11-16,67,59,51,64,58,50,100,92,84,30.01,29.90,29.77,10,9,2,24,12,32,0.01,8,,175
2013-11-17,80,70,59,70,60,26,93,58,22,30.01,29.74,29.63,10,8,2,35,16,45,0.66,6,Rain-Thunderstorm,214
2013-11-18,66,53,40,35,28,23,65,43,21,30.28,30.18,30.03,10,10,10,15,6,21,0.00,0,,352
2013-11-19,52,44,35,32,29,25,76,60,44,30.34,30.26,30.19,10,10,10,15,7,17,0.00,0,,49
2013-11-20,58,46,34,39,34,29,86,65,43,30.19,30.13,30.06,10,10,10,15,5,17,0.00,0,,97
2013-11-21,59,50,40,59,53,39,100,89,77,30.18,30.14,30.11,10,5,1,17,5,22,0.94,7,Rain,135
2013-11-22,59,50,40,58,49,35,100,88,76,30.44,30.29,30.16,10,8,2,17,8,24,0.24,8,Rain,360
2013-11-23,45,36,27,36,26,14,85,61,36,30.66,30.53,30.44,10,10,9,20,10,26,0.01,4,Rain,16
2013-11-24,32,27,21,20,16,13,68,61,53,30.72,30.62,30.46,10,10,10,16,9,25,0.00,2,,37
2013-11-25,33,32,31,31,27,20,92,74,56,30.44,30.29,30.19,10,10,5,13,4,16,0.13,8,Rain,66
2013-11-26,43,38,32,32,30,20,96,78,59,30.20,30.11,30.01,10,9,4,17,6,26,0.03,5,Rain,353
2013-11-27,36,28,20,18,14,11,84,60,35,30.40,30.34,30.22,10,10,10,15,5,23,0.00,0,,340
2013-11-28,44,32,19,29,23,17,92,73,53,30.48,30.42,30.37,10,10,10,18,6,22,0.00,0,,201
2013-11-29,51,37,23,34,29,23,100,75,50,30.58,30.50,30.43,10,10,7,8,1,10,0.00,0,,86
2013-11-30,55,40,25,37,32,26,100,72,43,30.43,30.32,30.20,10,8,2,18,5,24,0.00,0,,185